Time;durP1;ratioP1;P1;durP2;ratioP2;P2;SDS_P1;SDS_P2;PMS_P1;PMS_P2;Temp;Humidity;BMP_temperature;BMP_pressure;BME280_temperature;BME280_humidity;BME280_pressure;Samples;Min_cycle;Max_cycle;Signal;HPM_P1;HPM_P2
2022/06/20 00:02:21;;;;;;;4.60;3.20;;;25.10;48.90;26.30;100411.00;;;;5048992;28;20269;-44
2022/06/20 00:04:48;;;;;;;5.93;3.70;;;25.10;49.00;26.30;100414.00;;;;5051327;28;20185;-44
2022/06/20 00:07:14;;;;;;;4.43;3.95;;;25.00;49.70;26.20;100427.00;;;;5050257;28;20169;-43
2022/06/20 00:09:39;;;;;;;4.70;3.80;;;25.00;49.30;26.20;100446.00;;;;5068901;28;20461;-44
2022/06/20 00:12:06;;;;;;;4.55;3.33;;;25.00;49.50;26.00;100453.00;;;;5067942;28;20201;-44
2022/06/20 00:14:31;;;;;;;3.63;3.17;;;25.00;49.30;26.20;100464.00;;;;5065811;28;20221;-43
2022/06/20 00:16:57;;;;;;;6.05;3.75;;;25.00;49.20;26.20;100459.00;;;;5049216;28;20202;-43
2022/06/20 00:19:23;;;;;;;4.80;3.47;;;25.00;49.30;26.10;100456.00;;;;5080306;28;20198;-42
2022/06/20 00:21:48;;;;;;;5.78;4.00;;;24.90;49.40;26.10;100459.00;;;;5066902;28;20180;-43
2022/06/20 00:24:14;;;;;;;5.40;3.92;;;24.90;49.60;26.10;100442.00;;;;5066896;28;20307;-44
2022/06/20 00:26:40;;;;;;;5.37;4.30;;;24.90;49.70;26.00;100438.00;;;;5067283;28;20374;-43
2022/06/20 00:29:07;;;;;;;6.45;4.57;;;24.80;49.70;26.00;100414.00;;;;5067059;28;20170;-43
2022/06/20 00:31:34;;;;;;;4.85;3.95;;;24.80;49.70;26.00;100396.00;;;;5066487;28;20189;-44
2022/06/20 00:33:59;;;;;;;5.20;4.65;;;24.80;49.70;26.00;100367.00;;;;5067060;28;20358;-42
2022/06/20 00:36:25;;;;;;;5.78;4.47;;;24.80;49.80;25.90;100343.00;;;;5067249;28;20177;-44
2022/06/20 00:38:54;;;;;;;6.35;5.15;;;24.80;49.70;25.90;100310.00;;;;5048832;28;20188;-42
2022/06/20 00:41:23;;;;;;;6.22;5.20;;;24.60;50.00;25.80;100314.00;;;;5048979;28;20181;-44
2022/06/20 00:43:51;;;;;;;5.30;4.80;;;24.60;50.00;25.80;100320.00;;;;5066448;28;20680;-43
2022/06/20 00:46:30;;;;;;;5.90;5.03;;;24.70;50.50;25.80;100355.00;;;;5048866;28;20646;-44
2022/06/20 00:49:13;;;;;;;5.47;4.60;;;24.70;50.50;25.80;100350.00;;;;5066237;28;20227;-44
2022/06/20 00:52:13;;;;;;;5.03;4.53;;;24.70;49.80;25.80;100399.00;;;;5065431;28;20250;-44
2022/06/20 00:54:39;;;;;;;5.82;4.35;;;24.70;49.90;25.80;100412.00;;;;5050987;28;20193;-42
2022/06/20 00:57:16;;;;;;;6.25;4.70;;;24.70;49.80;25.80;100418.00;;;;5066479;28;20162;-43
2022/06/20 00:59:47;;;;;;;5.23;4.30;;;24.80;49.90;25.80;100414.00;;;;5065013;28;20630;-43
2022/06/20 01:02:17;;;;;;;5.50;4.10;;;24.70;49.70;25.80;100422.00;;;;5048794;28;20157;-43
2022/06/20 01:05:07;;;;;;;5.60;3.70;;;24.80;49.80;25.80;100422.00;;;;5048854;28;20281;-44
2022/06/20 01:07:43;;;;;;;6.27;4.20;;;24.80;49.70;25.80;100441.00;;;;5051378;28;20172;-43
2022/06/20 01:10:10;;;;;;;6.18;4.10;;;24.80;49.70;25.80;100453.00;;;;5064955;28;20150;-42
2022/06/20 01:12:55;;;;;;;4.37;3.67;;;24.80;49.70;25.80;100478.00;;;;5048147;28;20246;-43
2022/06/20 01:15:24;;;;;;;4.90;3.77;;;24.90;49.80;25.80;100512.00;;;;5064307;28;20178;-43
2022/06/20 01:17:50;;;;;;;4.80;4.00;;;25.00;49.80;25.80;100547.00;;;;5066033;28;20173;-43
2022/06/20 01:20:28;;;;;;;7.03;4.80;;;25.00;49.80;25.80;100586.00;;;;5065874;28;20162;-43
2022/06/20 01:23:20;;;;;;;8.80;4.80;;;25.00;50.20;25.80;100625.00;;;;5048251;28;20185;-43
2022/06/20 01:26:31;;;;;;;7.03;4.80;;;24.80;50.40;25.70;100678.00;;;;5066372;28;20351;-42
2022/06/20 01:29:03;;;;;;;7.40;4.70;;;24.70;51.10;25.60;100672.00;;;;5042025;28;20200;-42
2022/06/20 01:31:37;;;;;;;7.80;5.20;;;24.50;52.10;25.50;100631.00;;;;5066147;28;20897;-43
2022/06/20 01:34:03;;;;;;;8.27;5.10;;;24.40;52.20;25.50;100714.00;;;;5065205;28;20599;-41
2022/06/20 01:39:15;;;;;;;5.63;4.50;;;24.40;52.90;25.40;100712.00;;;;5051534;28;20227;-41
2022/06/20 01:44:25;;;;;;;7.07;4.60;;;24.40;52.90;25.40;100691.00;;;;5064773;28;20204;-42
2022/06/20 01:46:51;;;;;;;5.37;4.00;;;24.30;53.00;25.30;100689.00;;;;5048038;28;20169;-42
2022/06/20 01:49:20;;;;;;;6.67;4.00;;;24.30;52.70;25.40;100690.00;;;;5065696;28;20174;-43
2022/06/20 01:52:18;;;;;;;4.97;3.47;;;24.40;52.50;25.40;100674.00;;;;5047559;28;20277;-42
2022/06/20 01:54:51;;;;;;;4.93;3.53;;;24.40;52.20;25.40;100650.00;;;;5057139;28;20576;-42
2022/06/20 01:57:18;;;;;;;5.83;4.20;;;24.50;52.00;25.40;100622.00;;;;5065340;28;20162;-40
2022/06/20 02:00:09;;;;;;;6.10;4.27;;;24.60;51.60;25.50;100600.00;;;;5047790;28;20161;-41
2022/06/20 02:02:38;;;;;;;7.00;4.80;;;24.60;51.80;25.50;100570.00;;;;5064116;28;20417;-41
2022/06/20 02:05:07;;;;;;;6.73;4.80;;;24.70;51.90;25.50;100550.00;;;;5048204;28;20217;-42
2022/06/20 02:07:32;;;;;;;5.40;4.90;;;24.70;51.90;25.50;100538.00;;;;5068601;28;20184;-41
2022/06/20 02:10:00;;;;;;;4.63;4.20;;;24.70;51.90;25.50;100508.00;;;;5047910;28;20576;-41
2022/06/20 02:12:26;;;;;;;6.43;4.80;;;24.70;51.90;25.50;100483.00;;;;5047799;28;20185;-42
2022/06/20 02:14:56;;;;;;;5.67;4.93;;;24.70;51.90;25.50;100443.00;;;;5048194;28;20728;-42
2022/06/20 02:17:40;;;;;;;5.47;4.63;;;24.70;52.00;25.50;100414.00;;;;5064130;28;20166;-42
2022/06/20 02:20:12;;;;;;;6.30;4.10;;;24.70;52.30;25.50;100383.00;;;;5049911;28;20158;-41
2022/06/20 02:22:38;;;;;;;5.23;4.17;;;24.70;52.30;25.50;100362.00;;;;5048018;28;20436;-42
2022/06/20 02:25:08;;;;;;;5.30;4.23;;;24.70;52.30;25.50;100346.00;;;;5065739;28;20331;-41
2022/06/20 02:27:41;;;;;;;5.90;4.20;;;24.60;52.30;25.50;100302.00;;;;5067826;28;20213;-42
2022/06/20 02:30:08;;;;;;;5.70;3.80;;;24.70;52.40;25.50;100290.00;;;;5052129;28;20550;-41
2022/06/20 02:32:50;;;;;;;5.73;3.93;;;24.60;52.20;25.50;100265.00;;;;5067704;28;20838;-42
2022/06/20 02:35:17;;;;;;;4.30;3.90;;;24.60;52.20;25.50;100236.00;;;;5067761;28;20184;-42
2022/06/20 02:37:43;;;;;;;5.27;3.80;;;24.60;52.20;25.40;100219.00;;;;5068792;28;20598;-43
2022/06/20 02:40:13;;;;;;;4.47;3.50;;;24.60;52.20;25.40;100198.00;;;;5051130;28;20165;-43
2022/06/20 02:42:50;;;;;;;4.30;3.70;;;24.60;52.30;25.40;100178.00;;;;5051396;28;20181;-43
2022/06/20 02:45:16;;;;;;;4.43;3.90;;;24.50;52.40;25.40;100120.00;;;;5052541;28;20257;-42
2022/06/20 02:47:48;;;;;;;4.47;3.47;;;24.50;52.40;25.40;100080.00;;;;5052752;28;20264;-42
2022/06/20 02:50:16;;;;;;;4.13;3.73;;;24.50;52.70;25.40;100054.00;;;;5055805;28;20268;-41
2022/06/20 02:52:53;;;;;;;3.63;3.20;;;24.40;52.50;25.30;100031.00;;;;5059236;28;20201;-42
2022/06/20 02:55:19;;;;;;;3.53;3.23;;;24.40;52.70;25.30;100059.00;;;;5055101;28;20158;-42
2022/06/20 02:57:51;;;;;;;3.53;3.03;;;24.40;53.40;25.30;100084.00;;;;5053190;28;20349;-42
2022/06/20 03:00:21;;;;;;;3.50;3.20;;;24.30;52.80;25.20;100119.00;;;;5065517;28;20160;-42
2022/06/20 03:02:51;;;;;;;4.57;3.20;;;24.20;52.60;25.20;100164.00;;;;5080157;28;20204;-42
2022/06/20 03:05:18;;;;;;;3.40;3.10;;;24.30;52.80;25.20;100183.00;;;;5051765;28;20158;-42
2022/06/20 03:07:44;;;;;;;3.23;2.93;;;24.20;52.70;25.20;100200.00;;;;5051405;28;20225;-41
2022/06/20 03:10:19;;;;;;;3.53;2.90;;;24.20;52.90;25.20;100220.00;;;;5050938;28;20209;-41
2022/06/20 03:12:45;;;;;;;3.50;3.20;;;24.20;52.80;25.20;100218.00;;;;5067256;28;20576;-43
2022/06/20 03:15:10;;;;;;;3.60;3.20;;;24.20;52.80;25.20;100209.00;;;;5068329;28;20253;-43
2022/06/20 03:17:37;;;;;;;3.03;2.73;;;24.20;52.60;25.10;100215.00;;;;5066996;28;20253;-42
2022/06/20 03:20:04;;;;;;;3.23;2.93;;;24.20;52.80;25.10;100226.00;;;;5050808;28;20169;-41
2022/06/20 03:22:37;;;;;;;3.03;2.83;;;24.10;52.90;25.10;100231.00;;;;5050469;28;20225;-42
2022/06/20 03:25:04;;;;;;;3.20;2.90;;;24.10;52.80;25.10;100237.00;;;;5067078;28;20713;-45
2022/06/20 03:27:31;;;;;;;5.30;2.77;;;24.10;52.80;25.10;100247.00;;;;5066597;28;20294;-43
2022/06/20 03:30:04;;;;;;;4.43;2.80;;;24.20;52.80;25.10;100246.00;;;;5050533;28;20173;-44
2022/06/20 03:32:30;;;;;;;3.00;2.50;;;24.20;52.80;25.10;100260.00;;;;5067162;28;20209;-41
2022/06/20 03:34:56;;;;;;;3.33;2.53;;;24.20;52.80;25.10;100252.00;;;;5067958;28;20267;-42
2022/06/20 03:37:22;;;;;;;4.67;2.60;;;24.20;52.60;25.10;100255.00;;;;5067297;28;20222;-43
2022/06/20 03:39:48;;;;;;;3.13;2.80;;;24.30;52.50;25.10;100278.00;;;;5066822;28;20181;-42
2022/06/20 03:42:14;;;;;;;2.50;2.30;;;24.20;52.80;25.10;100278.00;;;;5068564;28;20230;-43
2022/06/20 03:44:54;;;;;;;2.87;2.57;;;24.20;52.80;25.10;100266.00;;;;5067962;28;20194;-42
2022/06/20 03:47:45;;;;;;;3.03;2.40;;;24.20;52.90;25.10;100291.00;;;;5050452;28;20774;-42
2022/06/20 03:50:20;;;;;;;3.80;2.80;;;24.20;52.90;25.00;100284.00;;;;5066730;28;20174;-42
2022/06/20 03:53:21;;;;;;;5.00;2.67;;;24.20;52.70;25.00;100301.00;;;;5050410;28;20208;-42
2022/06/20 03:56:01;;;;;;;3.17;2.50;;;24.10;52.60;25.00;100353.00;;;;5062633;28;20260;-41
2022/06/20 03:58:29;;;;;;;3.03;2.20;;;24.10;52.60;25.00;100357.00;;;;5050415;28;20154;-43
2022/06/20 04:01:04;;;;;;;2.33;2.10;;;24.10;52.60;25.00;100399.00;;;;5068644;28;20170;-43
2022/06/20 04:03:46;;;;;;;2.47;2.20;;;24.10;52.60;25.00;100416.00;;;;5068608;28;20258;-42
2022/06/20 04:06:25;;;;;;;2.37;2.17;;;24.00;52.50;25.00;100428.00;;;;5050207;28;20632;-42
2022/06/20 04:12:15;;;;;;;3.93;2.20;;;24.00;52.40;24.90;100464.00;;;;5073017;28;20196;-43
2022/06/20 04:14:49;;;;;;;2.90;2.30;;;24.10;52.50;24.90;100497.00;;;;5070062;28;20193;-42
2022/06/20 04:20:58;;;;;;;3.07;2.43;;;24.00;52.60;24.90;100524.00;;;;5072248;28;20157;-41
2022/06/20 04:23:35;;;;;;;2.73;2.20;;;24.10;52.50;24.90;100534.00;;;;5062773;28;20439;-42
2022/06/20 04:26:19;;;;;;;2.77;2.20;;;24.10;52.30;24.90;100542.00;;;;5087138;28;20161;-42
2022/06/20 04:28:47;;;;;;;2.73;2.37;;;24.10;52.50;24.90;100554.00;;;;5085643;28;20413;-42
2022/06/20 04:31:21;;;;;;;2.33;2.13;;;24.10;52.40;24.90;100561.00;;;;5087242;28;20208;-42
2022/06/20 04:34:19;;;;;;;2.10;1.97;;;24.00;52.20;24.90;100554.00;;;;5086653;28;20177;-42
2022/06/20 04:37:15;;;;;;;3.20;2.70;;;24.10;52.40;24.90;100567.00;;;;5054467;28;20746;-42
2022/06/20 04:40:00;;;;;;;2.87;2.30;;;24.00;52.50;24.90;100563.00;;;;5086078;28;20172;-42
2022/06/20 04:43:01;;;;;;;6.90;2.80;;;24.00;52.40;24.90;100559.00;;;;5070861;28;20406;-42
2022/06/20 04:45:43;;;;;;;6.77;2.90;;;24.00;52.40;24.90;100564.00;;;;5069302;28;20214;-41
2022/06/20 04:48:19;;;;;;;14.27;3.37;;;24.00;52.40;24.90;100570.00;;;;5053301;28;20206;-41
2022/06/20 04:51:12;;;;;;;8.47;3.27;;;24.00;52.40;24.90;100561.00;;;;5086157;28;20194;-41
2022/06/20 04:53:40;;;;;;;6.57;2.90;;;24.00;52.40;24.80;100573.00;;;;5083804;28;20258;-43
2022/06/20 04:56:10;;;;;;;8.60;2.80;;;24.10;52.50;24.90;100574.00;;;;5085243;28;20268;-43
2022/06/20 04:59:06;;;;;;;8.43;2.93;;;24.10;52.60;24.90;100573.00;;;;5084809;28;20219;-42
2022/06/20 05:01:33;;;;;;;5.83;2.90;;;24.10;52.60;24.80;100573.00;;;;5086645;28;20176;-43
2022/06/20 05:04:31;;;;;;;5.40;2.87;;;24.10;52.60;24.90;100576.00;;;;5068580;28;20595;-40
2022/06/20 05:06:59;;;;;;;4.60;2.90;;;24.10;52.60;24.80;100565.00;;;;5088434;28;20260;-43
2022/06/20 05:09:45;;;;;;;4.87;2.87;;;24.10;52.70;24.80;100555.00;;;;5087336;28;20176;-42
2022/06/20 05:12:48;;;;;;;4.23;2.90;;;24.10;52.70;24.80;100530.00;;;;5071346;28;20189;-43
2022/06/20 05:15:38;;;;;;;5.97;2.90;;;24.10;52.60;24.80;100504.00;;;;5053715;28;20172;-42
2022/06/20 05:18:27;;;;;;;5.67;2.93;;;24.10;53.00;24.80;100522.00;;;;5071267;28;20157;-43
2022/06/20 05:21:06;;;;;;;5.70;2.70;;;24.10;53.00;24.80;100518.00;;;;5070197;28;20187;-43
2022/06/20 05:23:59;;;;;;;4.77;2.83;;;24.10;53.00;24.70;100513.00;;;;5068607;28;20736;-43
2022/06/20 05:26:31;;;;;;;4.77;2.73;;;24.10;52.90;24.70;100512.00;;;;5072005;28;20180;-44
2022/06/20 05:28:58;;;;;;;5.07;2.50;;;24.10;52.80;24.70;100503.00;;;;5067618;28;20244;-42
2022/06/20 05:31:42;;;;;;;4.33;2.60;;;24.10;52.60;24.70;100505.00;;;;5067338;28;20185;-42
2022/06/20 05:34:28;;;;;;;3.57;2.83;;;24.00;52.80;24.70;100502.00;;;;5068954;28;20673;-42
2022/06/20 05:37:27;;;;;;;3.80;2.40;;;24.00;52.60;24.70;100503.00;;;;5083602;28;20150;-42
2022/06/20 05:40:14;;;;;;;4.57;2.50;;;24.00;52.80;24.70;100496.00;;;;5086294;28;20165;-42
2022/06/20 05:42:40;;;;;;;5.23;2.60;;;24.00;52.80;24.70;100511.00;;;;5070347;28;20160;-43
2022/06/20 05:45:18;;;;;;;3.50;2.47;;;23.90;52.80;24.70;100508.00;;;;5086066;28;20181;-43
2022/06/20 05:47:53;;;;;;;2.50;2.27;;;23.90;52.80;24.70;100507.00;;;;5084497;28;20340;-42
2022/06/20 05:50:37;;;;;;;3.47;2.37;;;23.90;52.80;24.60;100506.00;;;;5068774;28;20184;-42
2022/06/20 05:53:07;;;;;;;3.33;2.50;;;23.80;52.80;24.60;100520.00;;;;5069804;28;20169;-42
2022/06/20 05:55:45;;;;;;;3.67;2.70;;;23.90;52.80;24.60;100509.00;;;;5069558;28;20662;-42
2022/06/20 05:58:19;;;;;;;3.77;2.30;;;23.90;52.70;24.60;100525.00;;;;5069160;28;20163;-42
2022/06/20 06:00:45;;;;;;;3.80;2.80;;;23.90;52.90;24.60;100524.00;;;;5070844;28;20242;-43
2022/06/20 06:03:18;;;;;;;3.30;2.33;;;23.80;52.80;24.60;100524.00;;;;5089012;28;20249;-42
2022/06/20 06:05:49;;;;;;;3.03;2.20;;;23.80;52.80;24.60;100527.00;;;;5073059;28;20622;-42
2022/06/20 06:08:33;;;;;;;3.20;2.30;;;23.80;52.90;24.60;100529.00;;;;5072606;28;20575;-42
2022/06/20 06:11:14;;;;;;;2.97;2.30;;;23.80;52.90;24.50;100516.00;;;;5089103;28;20208;-42
2022/06/20 06:14:04;;;;;;;2.70;2.23;;;23.80;52.90;24.50;100513.00;;;;5088985;28;20184;-44
2022/06/20 06:16:48;;;;;;;4.03;2.70;;;23.80;52.90;24.50;100509.00;;;;5069759;28;20216;-41
2022/06/20 06:19:36;;;;;;;3.23;2.37;;;23.70;52.80;24.50;100501.00;;;;5088698;28;20268;-42
2022/06/20 06:22:16;;;;;;;3.50;2.50;;;23.70;52.70;24.50;100502.00;;;;5089800;28;20176;-44
2022/06/20 06:24:42;;;;;;;3.13;2.13;;;23.80;52.80;24.50;100501.00;;;;5083059;28;20279;-41
2022/06/20 06:27:12;;;;;;;3.40;2.30;;;23.70;52.60;24.40;100508.00;;;;5104079;28;20168;-40
2022/06/20 06:29:46;;;;;;;3.20;2.20;;;23.70;52.60;24.40;100519.00;;;;5081519;28;20169;-43
2022/06/20 06:32:28;;;;;;;3.47;2.20;;;23.70;52.60;24.40;100531.00;;;;5088523;28;20181;-43
2022/06/20 06:34:58;;;;;;;2.77;2.00;;;23.70;52.60;24.40;100543.00;;;;5073128;28;20208;-43
2022/06/20 06:37:52;;;;;;;3.63;2.20;;;23.70;52.40;24.40;100538.00;;;;5088389;28;20179;-43
2022/06/20 06:40:50;;;;;;;3.73;2.23;;;23.70;52.40;24.40;100546.00;;;;5087740;28;20605;-43
2022/06/20 06:43:21;;;;;;;3.50;2.30;;;23.60;52.30;24.30;100551.00;;;;5089258;28;20529;-43
2022/06/20 06:45:48;;;;;;;3.23;2.43;;;23.60;52.20;24.30;100552.00;;;;5087941;28;20169;-42
2022/06/20 06:48:39;;;;;;;3.90;2.20;;;23.60;52.30;24.30;100562.00;;;;5071014;28;20199;-43
2022/06/20 06:51:14;;;;;;;3.27;2.20;;;23.60;52.20;24.30;100559.00;;;;5073781;28;20211;-43
2022/06/20 06:54:11;;;;;;;3.47;2.43;;;23.60;52.10;24.30;100573.00;;;;5071629;28;20228;-43
2022/06/20 06:57:11;;;;;;;3.60;2.40;;;23.60;52.10;24.30;100590.00;;;;5072457;28;20169;-42
2022/06/20 07:00:25;;;;;;;2.80;1.77;;;23.60;52.20;24.30;100609.00;;;;5089027;28;20649;-41
2022/06/20 07:03:03;;;;;;;3.33;2.30;;;23.50;52.30;24.30;100609.00;;;;5072648;28;20180;-42
2022/06/20 07:05:35;;;;;;;3.63;2.30;;;23.60;52.30;24.30;100606.00;;;;5071132;28;20543;-43
2022/06/20 07:08:11;;;;;;;2.90;2.20;;;23.50;52.50;24.30;100618.00;;;;5071285;28;20182;-42
2022/06/20 07:10:55;;;;;;;3.20;2.67;;;23.50;52.20;24.20;100609.00;;;;5089514;28;20168;-42
2022/06/20 07:13:48;;;;;;;3.53;2.37;;;23.50;52.30;24.20;100608.00;;;;5086838;28;20246;-43
2022/06/20 07:16:27;;;;;;;3.47;2.50;;;23.50;52.30;24.20;100600.00;;;;5088041;28;20327;-42
2022/06/20 07:18:54;;;;;;;4.03;2.70;;;23.50;52.30;24.20;100591.00;;;;5087296;28;20904;-42
2022/06/20 07:21:22;;;;;;;4.63;2.90;;;23.50;52.10;24.20;100596.00;;;;5070639;28;20256;-43
2022/06/20 07:23:53;;;;;;;3.17;2.50;;;23.50;52.30;24.20;100603.00;;;;5070536;28;20205;-41
2022/06/20 07:26:21;;;;;;;4.27;2.70;;;23.50;51.80;24.20;100614.00;;;;5079414;28;20762;-43
2022/06/20 07:29:14;;;;;;;3.37;2.50;;;23.40;51.90;24.20;100623.00;;;;5067695;28;20165;-43
2022/06/20 07:31:53;;;;;;;3.67;2.60;;;23.40;52.00;24.20;100622.00;;;;5067742;28;20559;-43
2022/06/20 07:34:43;;;;;;;3.03;2.50;;;23.40;51.80;24.20;100624.00;;;;5052096;28;20196;-43
2022/06/20 07:37:37;;;;;;;4.10;2.47;;;23.40;51.80;24.10;100628.00;;;;5052965;28;20169;-42
2022/06/20 07:40:27;;;;;;;3.03;2.33;;;23.40;51.50;24.10;100619.00;;;;5052792;28;20162;-42
2022/06/20 07:43:03;;;;;;;4.20;2.33;;;23.40;51.40;24.10;100609.00;;;;5049738;28;20630;-43
2022/06/20 07:45:46;;;;;;;3.47;2.60;;;23.40;51.30;24.10;100617.00;;;;5050939;28;20173;-43
2022/06/20 07:48:35;;;;;;;2.57;2.20;;;23.40;51.10;24.10;100612.00;;;;5053111;28;20630;-42
2022/06/20 07:51:18;;;;;;;3.87;2.40;;;23.40;51.20;24.10;100606.00;;;;5050065;28;20208;-41
2022/06/20 07:54:06;;;;;;;2.83;2.20;;;23.40;51.00;24.10;100608.00;;;;5050885;28;20284;-42
2022/06/20 07:57:07;;;;;;;2.50;2.20;;;23.40;50.90;24.10;100614.00;;;;5053002;28;20271;-43
2022/06/20 07:59:50;;;;;;;3.17;2.27;;;23.40;50.80;23.90;100590.00;;;;4969263;28;20188;-40
2022/06/20 08:02:40;;;;;;;2.77;2.20;;;23.40;50.40;24.00;100611.00;;;;5085882;28;20644;-44
2022/06/20 08:05:06;;;;;;;4.83;2.27;;;23.40;50.80;24.00;100625.00;;;;5081698;28;20192;-43
2022/06/20 08:08:02;;;;;;;4.17;2.23;;;23.40;50.80;24.00;100650.00;;;;5087128;28;20165;-42
2022/06/20 08:10:39;;;;;;;3.77;2.50;;;23.40;50.80;24.00;100645.00;;;;5099569;28;20322;-43
2022/06/20 08:13:24;;;;;;;3.87;2.20;;;23.40;50.80;24.00;100657.00;;;;5102585;28;20401;-42
2022/06/20 08:16:32;;;;;;;3.20;2.03;;;23.40;51.00;24.00;100649.00;;;;5100156;28;20237;-41
2022/06/20 08:18:59;;;;;;;4.07;2.00;;;23.40;50.90;24.00;100655.00;;;;5054540;28;20697;-41
2022/06/20 08:21:33;;;;;;;4.53;2.40;;;23.40;51.20;24.00;100688.00;;;;5066504;28;20185;-44
2022/06/20 08:24:03;;;;;;;3.53;2.10;;;23.30;51.10;24.00;100689.00;;;;5097186;27;20231;-43
2022/06/20 08:26:34;;;;;;;4.77;2.37;;;23.30;51.20;24.00;100698.00;;;;5068868;28;20645;-42
2022/06/20 08:29:05;;;;;;;3.27;2.00;;;23.30;51.20;23.90;100694.00;;;;5067452;28;20227;-42
2022/06/20 08:31:33;;;;;;;4.00;2.30;;;23.20;51.20;23.90;100709.00;;;;5068381;28;20267;-43
2022/06/20 08:34:18;;;;;;;3.00;2.10;;;23.30;51.20;24.00;100714.00;;;;5069689;28;20735;-43
2022/06/20 08:36:52;;;;;;;3.87;2.30;;;23.30;51.00;24.00;100708.00;;;;5070238;28;20551;-42
2022/06/20 08:39:38;;;;;;;3.47;1.97;;;23.20;51.10;23.90;100718.00;;;;5069282;28;20540;-43
2022/06/20 08:42:38;;;;;;;4.20;2.20;;;23.20;51.10;23.90;100718.00;;;;5069129;28;20215;-42
2022/06/20 08:45:10;;;;;;;4.40;2.13;;;23.20;51.10;23.90;100725.00;;;;5068895;28;20198;-42
2022/06/20 08:48:10;;;;;;;4.77;2.20;;;23.20;51.30;23.90;100728.00;;;;5068568;28;20368;-43
2022/06/20 08:51:04;;;;;;;5.57;2.60;;;23.10;51.40;23.80;100727.00;;;;5069291;28;20631;-43
2022/06/20 08:53:56;;;;;;;4.53;2.80;;;23.10;51.50;23.80;100722.00;;;;5070122;28;20278;-42
2022/06/20 08:56:33;;;;;;;3.83;2.40;;;23.10;51.60;23.80;100735.00;;;;5078642;28;20170;-42
2022/06/20 08:59:08;;;;;;;5.40;2.80;;;23.10;51.70;23.80;100734.00;;;;5071014;28;20154;-42
2022/06/20 09:02:15;;;;;;;3.37;2.60;;;23.10;51.70;23.80;100744.00;;;;4904929;28;20171;-41
2022/06/20 09:05:03;;;;;;;3.60;2.30;;;23.10;51.60;23.80;100735.00;;;;5109341;28;20225;-42
2022/06/20 09:08:01;;;;;;;5.07;2.53;;;23.10;51.60;23.70;100744.00;;;;5109875;28;20180;-41
2022/06/20 09:11:15;;;;;;;3.30;2.57;;;23.10;51.60;23.70;100739.00;;;;5122958;27;20243;-43
2022/06/20 09:14:13;;;;;;;4.87;2.40;;;23.10;51.70;23.70;100659.00;;;;5124985;27;20196;-42
2022/06/20 09:17:07;;;;;;;3.30;2.57;;;23.10;51.60;23.70;100739.00;;;;5124772;27;20581;-42
2022/06/20 09:20:18;;;;;;;5.47;2.70;;;23.10;51.50;23.70;100725.00;;;;5117138;27;20218;-42
2022/06/20 09:23:22;;;;;;;6.60;3.20;;;23.00;51.80;23.60;100720.00;;;;5088827;28;20204;-42
2022/06/20 09:26:13;;;;;;;5.80;3.23;;;23.00;51.80;23.70;100733.00;;;;5098464;27;20596;-42
2022/06/20 09:29:23;;;;;;;5.13;3.17;;;23.00;52.00;23.70;100741.00;;;;5111475;27;20176;-42
2022/06/20 09:32:14;;;;;;;7.90;3.37;;;23.00;52.60;23.60;100746.00;;;;5079286;28;20296;-42
2022/06/20 09:35:23;;;;;;;6.70;3.07;;;22.90;52.60;23.60;100686.00;;;;5103467;28;20362;-42
2022/06/20 09:38:43;;;;;;;4.43;2.87;;;23.00;52.10;23.60;100742.00;;;;5088311;28;20169;-41
2022/06/20 09:41:25;;;;;;;4.93;3.20;;;23.00;52.30;23.60;100740.00;;;;5102681;28;20641;-42
2022/06/20 09:44:17;;;;;;;6.63;3.37;;;23.00;52.60;23.60;100756.00;;;;5103442;28;20181;-41
2022/06/20 09:47:20;;;;;;;4.50;3.07;;;23.00;52.70;23.60;100752.00;;;;5085310;28;20162;-43
2022/06/20 09:50:16;;;;;;;5.57;3.50;;;23.00;52.40;23.60;100757.00;;;;5075156;28;20157;-43
2022/06/20 09:53:23;;;;;;;5.57;2.93;;;23.10;52.50;23.60;100756.00;;;;5074706;28;20182;-43
2022/06/20 09:56:33;;;;;;;6.47;3.30;;;23.10;52.50;23.60;100759.00;;;;5082530;28;20560;-43
2022/06/20 09:59:17;;;;;;;8.20;3.40;;;23.00;52.70;23.60;100751.00;;;;5121013;28;20213;-42
2022/06/20 10:01:47;;;;;;;4.40;2.80;;;23.00;52.70;23.60;100765.00;;;;4861377;28;20651;-43
2022/06/20 10:04:48;;;;;;;6.87;3.30;;;23.00;52.60;23.40;100749.00;;;;5113652;28;20188;-44
2022/06/20 10:07:34;;;;;;;5.40;2.97;;;23.00;52.40;23.60;100759.00;;;;5101752;28;20363;-42
2022/06/20 10:10:40;;;;;;;3.37;2.50;;;23.00;52.30;23.60;100755.00;;;;5103211;28;20165;-42
2022/06/20 10:13:30;;;;;;;8.83;2.90;;;23.00;52.30;23.60;100758.00;;;;5088470;28;20180;-42
2022/06/20 10:16:12;;;;;;;6.80;2.67;;;23.10;52.40;23.60;100768.00;;;;5123105;28;20160;-43
2022/06/20 10:18:49;;;;;;;4.77;2.83;;;23.00;52.30;23.40;100766.00;;;;5122562;28;20634;-43
2022/06/20 10:21:56;;;;;;;5.63;2.90;;;23.00;52.40;23.60;100768.00;;;;5115575;28;20224;-42
2022/06/20 10:25:04;;;;;;;9.00;3.00;;;23.00;52.50;23.50;100775.00;;;;5086958;28;20573;-43
2022/06/20 10:28:12;;;;;;;7.50;2.90;;;23.00;52.70;23.50;100784.00;;;;5101871;28;20218;-42
2022/06/20 10:31:08;;;;;;;5.13;2.93;;;22.90;52.10;23.50;100786.00;;;;5103183;28;20153;-43
2022/06/20 10:33:51;;;;;;;7.97;2.53;;;23.00;51.80;23.50;100790.00;;;;5103991;28;20185;-43
2022/06/20 10:36:43;;;;;;;6.73;2.63;;;23.00;51.80;23.50;100791.00;;;;5088190;28;20364;-42
2022/06/20 10:39:35;;;;;;;4.30;2.77;;;23.00;51.70;23.60;100788.00;;;;5088303;28;20161;-42
2022/06/20 10:42:39;;;;;;;5.53;2.60;;;23.00;51.70;23.60;100788.00;;;;5101330;28;20172;-43
2022/06/20 10:45:46;;;;;;;4.23;2.70;;;23.00;51.60;23.60;100777.00;;;;5082758;28;20827;-43
2022/06/20 10:48:15;;;;;;;3.70;2.57;;;23.00;51.50;23.50;100809.00;;;;5104666;28;20172;-42
2022/06/20 10:50:46;;;;;;;5.67;2.90;;;23.00;51.50;23.50;100798.00;;;;5092014;28;20653;-42
2022/06/20 10:53:52;;;;;;;3.90;2.57;;;23.00;51.50;23.50;100796.00;;;;5107387;28;20185;-42
2022/06/20 10:56:38;;;;;;;3.07;2.60;;;23.00;51.50;23.50;100790.00;;;;5105504;28;20697;-43
2022/06/20 10:59:44;;;;;;;4.20;2.57;;;23.00;51.40;23.40;100759.00;;;;5090798;28;20267;-43
2022/06/20 11:02:36;;;;;;;3.17;2.47;;;23.00;51.30;23.60;100792.00;;;;5071661;28;20199;-42
2022/06/20 11:05:37;;;;;;;2.80;2.47;;;23.00;51.20;23.60;100786.00;;;;5070931;28;20209;-41
2022/06/20 11:08:24;;;;;;;2.90;2.43;;;23.00;51.20;23.60;100777.00;;;;5070147;28;20327;-42
2022/06/20 11:11:21;;;;;;;2.97;2.37;;;23.00;51.30;23.60;100793.00;;;;5071150;28;20670;-42
2022/06/20 11:14:32;;;;;;;3.53;2.57;;;23.00;51.20;23.60;100797.00;;;;5069766;28;20259;-43
2022/06/20 11:17:52;;;;;;;3.73;2.70;;;23.00;51.20;23.60;100787.00;;;;5070056;28;20653;-42
2022/06/20 11:20:35;;;;;;;3.27;2.60;;;23.00;51.20;23.50;100790.00;;;;5070226;28;20186;-42
2022/06/20 11:23:30;;;;;;;3.10;2.40;;;23.00;50.40;23.60;100783.00;;;;5091305;28;20245;-43
2022/06/20 11:26:04;;;;;;;2.97;2.60;;;23.00;50.30;23.60;100789.00;;;;5124182;27;20216;-44
2022/06/20 11:29:07;;;;;;;2.67;2.47;;;23.00;49.50;23.60;100792.00;;;;5127238;27;20156;-43
2022/06/20 11:32:10;;;;;;;3.10;2.50;;;23.00;49.80;23.60;100795.00;;;;5125000;27;20223;-43
2022/06/20 11:35:24;;;;;;;3.17;2.60;;;23.00;50.00;23.60;100790.00;;;;5111349;28;20188;-43
2022/06/20 11:38:11;;;;;;;2.67;2.40;;;23.00;50.00;23.60;100788.00;;;;5061035;28;20178;-43
2022/06/20 11:41:00;;;;;;;4.73;2.80;;;23.00;50.00;23.60;100786.00;;;;5067821;28;20193;-43
2022/06/20 11:44:10;;;;;;;3.17;2.53;;;23.00;49.70;23.60;100785.00;;;;5073684;28;20193;-43
2022/06/20 11:47:28;;;;;;;3.60;2.33;;;23.00;49.60;23.60;100783.00;;;;5091701;28;20153;-42
2022/06/20 11:50:13;;;;;;;5.87;2.60;;;23.00;49.30;23.60;100788.00;;;;5091210;28;20161;-42
2022/06/20 11:53:21;;;;;;;3.67;2.60;;;23.00;48.90;23.60;100774.00;;;;5105584;28;20199;-42
2022/06/20 11:56:13;;;;;;;3.40;2.40;;;23.00;48.40;23.60;100774.00;;;;5091425;28;20149;-42
2022/06/20 11:59:04;;;;;;;5.00;2.77;;;23.00;48.20;23.60;100786.00;;;;5103454;28;20165;-43
2022/06/20 12:01:43;;;;;;;3.10;2.50;;;23.00;48.50;23.70;100768.00;;;;5091183;28;20176;-43
2022/06/20 12:04:24;;;;;;;3.53;2.40;;;23.00;48.70;23.70;100791.00;;;;5105863;28;20184;-42